Time;durP1;ratioP1;P1;durP2;ratioP2;P2;SDS_P1;SDS_P2;PMS_P1;PMS_P2;Temp;Humidity;BMP_temperature;BMP_pressure;BME280_temperature;BME280_humidity;BME280_pressure;Samples;Min_cycle;Max_cycle;Signal;HPM_P1;HPM_P2
2021/10/12 00:00:48;;;;;;;28.50;15.20;;;;;;;10.85;38.34;100559.71;117341;1185;21845;-60
2021/10/12 00:03:16;;;;;;;24.50;15.50;;;;;;;10.88;38.37;100557.04;117285;1188;23541;-60
2021/10/12 00:05:46;;;;;;;25.40;14.70;;;;;;;10.91;38.50;100555.08;117353;1185;23596;-60
2021/10/12 00:08:14;;;;;;;26.70;15.60;;;;;;;10.95;38.42;100551.19;117389;1186;21947;-60
2021/10/12 00:10:42;;;;;;;24.30;15.70;;;;;;;10.99;38.43;100550.78;117335;1182;23545;-60
2021/10/12 00:13:10;;;;;;;26.20;15.40;;;;;;;11.03;38.69;100543.19;117342;1185;21857;-60
2021/10/12 00:15:39;;;;;;;30.90;15.80;;;;;;;11.06;38.51;100546.11;117284;1182;22899;-60
2021/10/12 00:18:07;;;;;;;30.20;15.90;;;;;;;11.10;38.68;100543.64;117331;1182;21868;-60
2021/10/12 00:20:36;;;;;;;26.40;13.90;;;;;;;11.13;38.67;100547.29;117288;1183;23570;-60
2021/10/12 00:23:05;;;;;;;25.40;14.90;;;;;;;11.18;38.85;100540.38;117223;1189;21858;-60
2021/10/12 00:25:37;;;;;;;23.20;14.30;;;;;;;11.20;38.67;100531.39;117274;1182;23551;-60
2021/10/12 00:28:05;;;;;;;24.10;14.00;;;;;;;11.23;38.80;100525.58;117361;1185;23452;-60
2021/10/12 00:30:33;;;;;;;21.70;14.40;;;;;;;11.26;38.64;100528.34;117234;1185;23567;-60
2021/10/12 00:33:02;;;;;;;25.30;15.30;;;;;;;11.28;38.76;100529.00;117248;1186;21861;-60
2021/10/12 00:35:30;;;;;;;27.90;15.10;;;;;;;11.30;38.79;100532.33;117189;1186;21861;-60
2021/10/12 00:37:59;;;;;;;26.50;15.10;;;;;;;11.33;38.85;100528.77;117335;1185;21884;-60
2021/10/12 00:40:27;;;;;;;25.00;14.80;;;;;;;11.36;38.81;100523.11;117309;1183;22918;-60
2021/10/12 00:42:55;;;;;;;25.90;14.50;;;;;;;11.40;38.87;100515.34;117234;1185;23557;-60
2021/10/12 00:45:24;;;;;;;26.80;14.90;;;;;;;11.42;38.89;100512.84;117321;1182;21856;-60
2021/10/12 00:48:01;;;;;;;26.50;15.90;;;;;;;11.46;38.73;100504.19;117284;1182;22992;-60
2021/10/12 00:50:31;;;;;;;26.90;16.10;;;;;;;11.48;38.90;100500.98;117277;1185;22324;-60
2021/10/12 00:53:01;;;;;;;31.50;15.50;;;;;;;11.50;38.82;100498.32;117344;1185;23630;-59
2021/10/12 00:55:29;;;;;;;29.10;15.30;;;;;;;11.51;38.96;100496.02;117266;1185;22893;-60
2021/10/12 00:57:57;;;;;;;27.20;15.40;;;;;;;11.52;38.87;100494.61;117270;1185;23547;-60
2021/10/12 01:00:26;;;;;;;27.40;16.10;;;;;;;11.51;38.87;100496.20;117167;1186;21860;-60
2021/10/12 01:02:54;;;;;;;26.60;15.60;;;;;;;11.50;38.94;100496.02;117333;1185;22981;-60
2021/10/12 01:05:22;;;;;;;27.00;16.20;;;;;;;11.48;38.90;100491.51;117303;1185;23291;-60
2021/10/12 01:07:51;;;;;;;30.30;17.50;;;;;;;11.47;38.87;100493.11;117273;1186;23698;-60
2021/10/12 01:10:19;;;;;;;32.10;15.60;;;;;;;11.46;38.96;100488.20;117404;1183;22243;-60
2021/10/12 01:12:47;;;;;;;28.20;16.30;;;;;;;11.46;38.94;100485.74;117331;1183;22919;-60
2021/10/12 01:15:15;;;;;;;25.60;14.80;;;;;;;11.47;38.91;100487.48;117200;1185;21874;-60
2021/10/12 01:17:44;;;;;;;24.00;15.80;;;;;;;11.47;38.81;100483.61;117279;1182;23567;-60
2021/10/12 01:20:12;;;;;;;26.90;16.00;;;;;;;11.45;38.97;100481.88;117066;1190;21859;-60
2021/10/12 01:22:42;;;;;;;30.40;16.90;;;;;;;11.45;39.10;100479.25;117306;1185;22633;-60
2021/10/12 01:25:11;;;;;;;24.50;14.80;;;;;;;11.50;39.07;100477.40;117370;1184;22971;-60
2021/10/12 01:27:39;;;;;;;28.00;15.90;;;;;;;11.51;39.18;100473.17;117339;1182;23547;-60
2021/10/12 01:30:08;;;;;;;25.70;15.50;;;;;;;11.51;39.06;100467.56;117289;1185;22844;-60
2021/10/12 01:32:40;;;;;;;28.80;16.30;;;;;;;11.52;39.15;100465.95;117321;1183;22639;-60
2021/10/12 01:35:09;;;;;;;27.00;16.10;;;;;;;11.54;39.21;100466.45;117277;1186;21851;-60
2021/10/12 01:37:38;;;;;;;27.30;15.70;;;;;;;11.55;39.29;100469.08;117311;1186;21863;-59
2021/10/12 01:40:07;;;;;;;32.10;17.60;;;;;;;11.57;39.29;100458.33;117300;1188;21854;-60
2021/10/12 01:42:35;;;;;;;26.60;15.50;;;;;;;11.60;39.32;100461.27;117330;1182;22610;-60
2021/10/12 01:45:06;;;;;;;27.60;15.80;;;;;;;11.62;39.39;100457.90;117262;1182;23544;-60
2021/10/12 01:47:37;;;;;;;27.10;16.00;;;;;;;11.65;39.00;100458.05;117310;1185;22905;-60
2021/10/12 01:50:06;;;;;;;;;;;;;;;11.66;39.17;100463.10;117296;1185;21831;-60
2021/10/12 01:52:36;;;;;;;30.60;14.80;;;;;;;11.68;39.38;100466.27;117289;1185;21876;-60
2021/10/12 01:55:05;;;;;;;26.20;15.10;;;;;;;11.68;39.23;100465.55;117320;1185;22930;-60
2021/10/12 01:57:33;;;;;;;25.30;14.40;;;;;;;11.70;39.11;100464.64;117346;1185;22916;-60
2021/10/12 02:00:03;;;;;;;33.40;15.10;;;;;;;11.73;39.26;100462.65;117362;1185;21904;-61
2021/10/12 02:02:31;;;;;;;23.50;14.00;;;;;;;11.77;39.29;100463.48;117295;1183;23545;-60
2021/10/12 02:05:00;;;;;;;25.60;15.10;;;;;;;11.77;39.25;100460.48;117312;1186;23656;-60
2021/10/12 02:07:28;;;;;;;25.00;14.30;;;;;;;11.78;39.29;100457.12;117308;1185;23557;-49
2021/10/12 02:09:57;;;;;;;26.00;15.50;;;;;;;11.78;39.29;100452.55;117310;1186;21857;-49
2021/10/12 02:12:25;;;;;;;23.20;14.10;;;;;;;11.80;39.35;100448.48;117402;1185;23665;-50
2021/10/12 02:14:53;;;;;;;27.00;15.30;;;;;;;11.81;39.28;100443.03;117317;1185;21897;-50
2021/10/12 02:17:30;;;;;;;30.50;14.60;;;;;;;11.84;39.26;100444.73;117283;1185;23544;-49
2021/10/12 02:19:59;;;;;;;20.80;14.20;;;;;;;11.83;39.37;100442.63;117335;1185;23640;-50
2021/10/12 02:22:27;;;;;;;22.10;13.60;;;;;;;11.80;39.27;100434.93;117337;1186;23804;-49
2021/10/12 02:24:55;;;;;;;23.90;13.60;;;;;;;11.79;39.32;100436.38;117336;1182;21872;-49
2021/10/12 02:27:23;;;;;;;23.90;13.90;;;;;;;11.77;39.18;100434.80;117340;1182;22812;-49
2021/10/12 02:29:52;;;;;;;33.40;15.00;;;;;;;11.75;39.16;100430.10;117299;1182;22821;-49
2021/10/12 02:32:20;;;;;;;23.20;13.80;;;;;;;11.72;39.11;100428.91;117332;1185;23534;-50
2021/10/12 02:34:48;;;;;;;25.40;13.90;;;;;;;11.71;39.32;100430.67;117277;1183;21880;-49
2021/10/12 02:37:16;;;;;;;22.00;13.50;;;;;;;11.68;39.38;100423.88;117260;1185;23569;-49
2021/10/12 02:39:45;;;;;;;23.70;13.10;;;;;;;11.68;39.42;100425.11;117311;1183;23547;-50
2021/10/12 02:42:16;;;;;;;23.10;13.10;;;;;;;11.67;39.14;100424.62;117342;1182;23542;-49
2021/10/12 02:44:44;;;;;;;23.10;14.40;;;;;;;11.66;39.36;100424.62;117350;1183;25326;-49
2021/10/12 02:47:12;;;;;;;24.90;12.50;;;;;;;11.65;39.48;100422.19;117403;1185;21857;-49
2021/10/12 02:49:47;;;;;;;20.90;12.30;;;;;;;11.66;39.42;100417.42;117298;1182;23545;-49
2021/10/12 02:52:16;;;;;;;24.90;13.60;;;;;;;11.68;39.35;100417.20;117268;1185;23544;-49
2021/10/12 02:54:44;;;;;;;21.40;12.70;;;;;;;11.69;39.46;100414.03;117316;1185;23544;-49
2021/10/12 02:57:12;;;;;;;20.00;12.00;;;;;;;11.73;39.54;100410.09;117325;1182;21864;-49
2021/10/12 02:59:40;;;;;;;22.10;12.70;;;;;;;11.75;39.34;100408.48;117256;1184;21890;-49
2021/10/12 03:02:09;;;;;;;21.10;12.60;;;;;;;11.77;39.62;100407.22;117284;1188;23551;-49
2021/10/12 03:04:37;;;;;;;19.50;12.20;;;;;;;11.79;39.43;100401.03;117296;1183;23540;-50
2021/10/12 03:07:05;;;;;;;23.20;12.90;;;;;;;11.80;39.48;100400.48;117296;1188;21866;-49
2021/10/12 03:09:35;;;;;;;18.80;11.90;;;;;;;11.82;39.45;100401.16;117269;1186;21861;-50
2021/10/12 03:12:05;;;;;;;19.00;12.00;;;;;;;11.84;39.56;100396.73;117272;1183;22929;-49
2021/10/12 03:14:34;;;;;;;21.10;11.50;;;;;;;11.85;39.32;100396.71;117269;1182;21857;-49
2021/10/12 03:17:02;;;;;;;21.90;11.90;;;;;;;11.90;39.35;100393.27;117323;1186;21870;-49
2021/10/12 03:19:31;;;;;;;17.40;11.60;;;;;;;11.93;39.34;100396.05;117303;1188;23222;-50
2021/10/12 03:22:07;;;;;;;19.30;11.20;;;;;;;11.92;39.43;100392.54;117301;1183;23571;-49
2021/10/12 03:24:36;;;;;;;22.70;11.60;;;;;;;11.90;39.64;100389.58;117157;1186;23543;-50
2021/10/12 03:27:05;;;;;;;20.40;11.20;;;;;;;11.87;39.62;100382.78;117281;1183;23432;-49
2021/10/12 03:29:35;;;;;;;20.60;12.50;;;;;;;11.86;39.44;100380.67;117325;1185;21858;-49
2021/10/12 03:32:03;;;;;;;21.80;10.70;;;;;;;11.86;39.57;100386.31;117402;1181;21862;-49
2021/10/12 03:34:32;;;;;;;21.70;11.70;;;;;;;11.87;39.45;100386.48;117400;1185;21879;-49
2021/10/12 03:37:00;;;;;;;18.70;11.70;;;;;;;11.88;39.56;100390.68;117329;1185;21860;-49
2021/10/12 03:39:30;;;;;;;18.90;11.00;;;;;;;11.89;39.55;100389.08;117380;1186;21870;-49
2021/10/12 03:41:58;;;;;;;23.00;10.80;;;;;;;11.90;39.74;100385.20;117312;1185;21902;-49
2021/10/12 03:44:30;;;;;;;18.70;10.90;;;;;;;11.96;39.55;100383.50;117311;1183;22651;-49
2021/10/12 03:46:58;;;;;;;21.30;10.90;;;;;;;11.96;39.64;100383.16;117293;1185;21859;-50
2021/10/12 03:49:26;;;;;;;19.00;10.20;;;;;;;11.97;39.41;100385.42;117250;1184;23569;-50
2021/10/12 03:51:54;;;;;;;19.90;10.10;;;;;;;11.97;39.66;100382.60;117288;1182;21870;-49
2021/10/12 03:54:23;;;;;;;21.50;11.90;;;;;;;11.99;39.67;100382.23;117309;1182;23559;-47
2021/10/12 03:56:51;;;;;;;17.80;10.40;;;;;;;12.00;39.66;100385.40;117410;1183;23547;-47
2021/10/12 03:59:19;;;;;;;17.20;11.00;;;;;;;12.01;39.65;100378.52;117327;1185;23547;-49
2021/10/12 04:01:47;;;;;;;21.40;10.60;;;;;;;12.02;39.89;100380.09;117218;1185;21856;-48
2021/10/12 04:04:16;;;;;;;16.90;10.10;;;;;;;12.04;39.81;100378.12;117242;1185;23601;-49
2021/10/12 04:06:45;;;;;;;19.10;10.40;;;;;;;12.08;39.82;100377.18;117366;1183;23542;-49
2021/10/12 04:09:13;;;;;;;17.30;10.70;;;;;;;12.11;39.74;100376.23;117280;1185;21857;-49
2021/10/12 04:11:42;;;;;;;32.40;11.20;;;;;;;12.14;39.74;100374.95;117299;1183;23579;-49
2021/10/12 04:14:10;;;;;;;24.50;13.10;;;;;;;12.16;39.76;100372.78;117350;1185;23567;-49
2021/10/12 04:16:43;;;;;;;25.70;12.60;;;;;;;12.17;39.69;100366.80;117373;1185;21867;-49
2021/10/12 04:19:11;;;;;;;20.90;11.60;;;;;;;12.17;39.73;100366.60;117310;1182;23439;-60
2021/10/12 04:21:39;;;;;;;21.90;11.80;;;;;;;12.18;39.90;100367.48;117311;1185;23566;-59
2021/10/12 04:24:07;;;;;;;24.90;11.30;;;;;;;12.18;39.65;100365.02;117637;1185;23589;-60
2021/10/12 04:26:38;;;;;;;24.30;12.30;;;;;;;12.18;39.71;100364.30;117170;1186;21857;-60
2021/10/12 04:29:07;;;;;;;22.80;12.40;;;;;;;12.19;39.79;100360.77;117318;1181;21859;-60
2021/10/12 04:31:35;;;;;;;30.10;13.20;;;;;;;12.19;39.72;100361.30;117327;1183;23442;-60
2021/10/12 04:34:08;;;;;;;27.20;11.90;;;;;;;12.19;39.79;100364.30;117268;1186;21898;-60
2021/10/12 04:36:37;;;;;;;28.30;12.30;;;;;;;12.19;39.81;100364.11;117324;1182;22859;-58
2021/10/12 04:39:05;;;;;;;22.70;13.30;;;;;;;12.20;39.78;100364.80;117253;1182;23441;-60
2021/10/12 04:41:33;;;;;;;23.10;12.50;;;;;;;12.20;39.82;100366.38;117356;1182;21860;-60
2021/10/12 04:44:02;;;;;;;24.80;11.90;;;;;;;12.21;39.87;100365.33;117285;1185;21866;-58
2021/10/12 04:46:30;;;;;;;22.40;12.10;;;;;;;12.20;39.92;100359.69;117213;1184;22948;-60
2021/10/12 04:48:58;;;;;;;21.00;12.50;;;;;;;12.20;39.85;100353.89;117275;1180;23547;-60
2021/10/12 04:51:26;;;;;;;21.80;13.00;;;;;;;12.19;39.90;100362.70;117291;1188;22918;-60
2021/10/12 04:53:54;;;;;;;19.10;12.30;;;;;;;12.19;39.91;100360.23;117314;1186;21858;-61
2021/10/12 04:56:22;;;;;;;29.10;13.40;;;;;;;12.20;39.92;100362.52;117279;1182;23491;-60
2021/10/12 04:58:51;;;;;;;23.50;12.80;;;;;;;12.21;40.06;100363.73;117340;1183;23545;-60
2021/10/12 05:01:19;;;;;;;21.70;12.10;;;;;;;12.21;39.95;100357.58;117247;1185;21856;-60
2021/10/12 05:03:47;;;;;;;23.20;13.00;;;;;;;12.20;39.85;100358.12;117262;1183;21896;-60
2021/10/12 05:06:15;;;;;;;25.20;13.00;;;;;;;12.19;40.05;100360.25;117357;1182;23563;-60
2021/10/12 05:08:44;;;;;;;23.40;13.20;;;;;;;12.18;39.93;100363.80;117320;1185;23547;-61
2021/10/12 05:11:32;;;;;;;25.10;12.20;;;;;;;12.16;39.97;100364.71;117267;1185;21866;-60
2021/10/12 05:14:01;;;;;;;21.60;12.80;;;;;;;12.15;40.02;100362.98;117335;1182;23560;-60
2021/10/12 05:16:30;;;;;;;25.80;13.40;;;;;;;12.15;40.10;100360.15;117332;1182;23460;-60
2021/10/12 05:19:00;;;;;;;22.40;13.10;;;;;;;12.14;40.08;100360.68;117364;1183;23589;-60
2021/10/12 05:21:28;;;;;;;23.90;12.60;;;;;;;12.16;40.16;100355.73;117334;1183;21940;-60
2021/10/12 05:23:57;;;;;;;19.70;11.90;;;;;;;12.19;40.25;100351.46;117324;1185;22992;-60
2021/10/12 05:26:26;;;;;;;24.10;12.80;;;;;;;12.20;40.25;100339.64;117367;1183;22916;-60
2021/10/12 05:28:54;;;;;;;21.20;12.40;;;;;;;12.22;40.30;100333.45;117327;1186;23547;-60
2021/10/12 05:31:23;;;;;;;21.30;13.60;;;;;;;12.22;40.17;100324.83;117310;1182;23547;-60
2021/10/12 05:33:51;;;;;;;31.30;15.80;;;;;;;12.20;40.20;100334.55;117277;1189;21861;-60
2021/10/12 05:36:19;;;;;;;26.50;14.40;;;;;;;12.17;40.29;100357.45;117135;1186;23442;-60
2021/10/12 05:38:48;;;;;;;42.10;13.90;;;;;;;12.15;40.25;100364.71;117249;1183;22651;-59
2021/10/12 05:41:16;;;;;;;29.20;14.80;;;;;;;12.13;40.32;100368.79;117255;1185;21899;-59
2021/10/12 05:43:44;;;;;;;33.70;14.40;;;;;;;12.13;40.23;100371.46;117283;1183;23556;-59
2021/10/12 05:46:12;;;;;;;35.10;16.10;;;;;;;12.13;40.24;100373.73;117298;1186;21860;-61
2021/10/12 05:48:40;;;;;;;40.90;19.20;;;;;;;12.12;40.44;100372.19;117270;1185;22040;-61
2021/10/12 05:51:11;;;;;;;49.90;21.20;;;;;;;12.09;40.46;100372.23;117300;1182;23034;-60
2021/10/12 05:59:02;;;;;;;55.60;26.00;;;;;;;12.02;40.49;100368.84;117001;1188;23455;-60
2021/10/12 06:01:35;;;;;;;;;;;;;;;12.02;40.66;100371.13;117312;1184;23548;-60
2021/10/12 06:04:04;;;;;;;33.30;15.60;;;;;;;12.04;40.73;100366.34;117316;1185;21982;-59
2021/10/12 06:06:32;;;;;;;29.60;16.20;;;;;;;12.05;40.65;100360.51;117296;1183;22639;-60
2021/10/12 06:09:01;;;;;;;25.50;15.10;;;;;;;12.05;40.91;100353.48;117336;1182;24289;-54
2021/10/12 06:11:29;;;;;;;29.10;15.80;;;;;;;12.06;40.82;100353.98;117326;1183;23544;-54
2021/10/12 06:13:57;;;;;;;24.40;15.50;;;;;;;12.07;41.05;100355.90;117327;1185;23470;-54
2021/10/12 06:16:25;;;;;;;23.40;14.40;;;;;;;12.09;40.91;100360.44;117285;1184;23442;-54
2021/10/12 06:18:53;;;;;;;23.20;14.70;;;;;;;12.13;40.90;100359.84;117296;1185;21862;-54
2021/10/12 06:21:22;;;;;;;23.10;14.60;;;;;;;12.16;41.00;100362.05;117333;1185;23569;-53
2021/10/12 06:23:50;;;;;;;21.20;14.10;;;;;;;12.19;41.14;100363.41;117279;1183;22625;-54
2021/10/12 06:26:19;;;;;;;24.80;14.70;;;;;;;12.21;41.19;100363.90;117307;1185;23566;-53
2021/10/12 06:28:47;;;;;;;93.80;43.50;;;;;;;12.25;41.25;100364.72;117279;1185;22098;-54
2021/10/12 06:31:15;;;;;;;43.20;20.80;;;;;;;12.27;41.30;100366.42;117344;1185;23557;-53
2021/10/12 06:33:43;;;;;;;29.80;18.30;;;;;;;12.30;41.21;100369.55;117397;1185;23544;-54
2021/10/12 06:36:12;;;;;;;26.90;17.30;;;;;;;12.31;41.37;100369.52;117296;1186;21844;-54
2021/10/12 06:38:41;;;;;;;25.00;15.50;;;;;;;12.33;41.41;100369.67;117296;1182;23557;-55
2021/10/12 06:41:10;;;;;;;29.50;17.20;;;;;;;12.35;41.37;100372.95;117347;1183;23547;-55
2021/10/12 06:43:39;;;;;;;28.20;16.80;;;;;;;12.39;41.41;100372.70;117310;1186;21859;-54
2021/10/12 06:46:07;;;;;;;25.80;18.40;;;;;;;12.46;41.68;100368.87;117274;1185;23566;-53
2021/10/12 06:48:35;;;;;;;29.60;16.30;;;;;;;12.55;41.71;100366.41;117236;1185;22918;-53
2021/10/12 06:51:04;;;;;;;32.30;17.50;;;;;;;12.63;41.72;100358.83;117315;1182;23541;-54
2021/10/12 06:53:53;;;;;;;27.40;16.90;;;;;;;12.71;41.81;100353.21;117290;1185;24142;-54
2021/10/12 06:56:21;;;;;;;28.80;15.50;;;;;;;12.79;41.76;100350.23;117388;1184;23588;-55
2021/10/12 06:58:49;;;;;;;28.80;15.60;;;;;;;12.87;41.97;100348.83;117247;1183;21868;-54
2021/10/12 07:01:21;;;;;;;40.20;15.80;;;;;;;12.95;41.82;100354.81;117350;1182;23557;-53
2021/10/12 07:03:50;;;;;;;28.00;14.90;;;;;;;13.02;41.90;100343.89;117352;1185;21858;-53
2021/10/12 07:06:18;;;;;;;27.20;15.50;;;;;;;13.12;41.89;100335.58;117300;1185;23544;-53
2021/10/12 07:08:47;;;;;;;31.10;17.00;;;;;;;13.21;41.83;100329.89;117437;1185;22225;-54
2021/10/12 07:11:15;;;;;;;23.00;15.60;;;;;;;13.30;41.82;100329.14;117310;1182;22921;-52
2021/10/12 07:13:50;;;;;;;21.60;14.50;;;;;;;13.39;41.98;100329.48;117274;1183;23545;-53
2021/10/12 07:16:21;;;;;;;32.80;22.40;;;;;;;13.50;42.01;100329.58;117418;1185;21855;-55
2021/10/12 07:18:50;;;;;;;26.10;19.80;;;;;;;13.60;41.87;100331.10;117327;1183;22976;-55
2021/10/12 07:21:18;;;;;;;30.70;18.00;;;;;;;13.68;42.03;100329.66;117301;1185;21900;-54
2021/10/12 07:23:47;;;;;;;28.40;17.90;;;;;;;13.82;42.26;100326.63;117334;1185;23642;-55
2021/10/12 07:26:15;;;;;;;25.00;18.60;;;;;;;13.96;42.25;100324.33;117323;1185;23469;-54
2021/10/12 07:28:43;;;;;;;25.00;16.80;;;;;;;14.05;42.26;100322.52;117409;1185;23640;-54
2021/10/12 07:31:11;;;;;;;24.50;17.00;;;;;;;14.11;42.25;100318.62;117278;1187;23624;-54
2021/10/12 07:33:40;;;;;;;30.30;17.50;;;;;;;14.19;42.35;100322.64;117274;1185;23432;-55
2021/10/12 07:36:08;;;;;;;24.60;17.00;;;;;;;14.28;42.29;100319.92;117289;1185;21858;-55
2021/10/12 07:38:37;;;;;;;24.40;16.60;;;;;;;14.38;42.44;100321.38;117285;1185;21863;-54
2021/10/12 07:41:06;;;;;;;23.30;17.50;;;;;;;14.51;42.39;100321.55;117245;1183;22078;-54
2021/10/12 07:43:35;;;;;;;25.90;18.10;;;;;;;14.65;42.53;100321.48;117354;1181;21971;-54
2021/10/12 07:46:04;;;;;;;24.20;16.60;;;;;;;14.79;42.47;100328.71;117361;1182;22239;-54
2021/10/12 07:48:32;;;;;;;25.60;18.10;;;;;;;14.87;42.66;100322.79;117315;1185;23579;-54
2021/10/12 07:51:05;;;;;;;24.70;18.00;;;;;;;14.99;42.75;100319.61;117292;1182;23436;-54
2021/10/12 07:53:36;;;;;;;27.30;18.60;;;;;;;15.10;42.76;100316.06;117314;1182;22936;-54
2021/10/12 07:56:10;;;;;;;26.00;18.40;;;;;;;15.23;42.85;100314.94;117293;1183;21864;-54
2021/10/12 07:58:38;;;;;;;27.00;17.80;;;;;;;15.35;42.82;100314.57;117310;1182;22979;-53
2021/10/12 08:01:06;;;;;;;24.80;17.40;;;;;;;15.47;42.79;100318.21;117296;1185;21855;-53
2021/10/12 08:03:47;;;;;;;25.90;17.30;;;;;;;15.61;42.90;100317.25;117259;1184;23587;-59
2021/10/12 08:06:15;;;;;;;26.20;18.20;;;;;;;15.72;42.86;100311.19;117264;1184;23548;-59
2021/10/12 08:08:43;;;;;;;27.50;20.30;;;;;;;15.83;43.00;100305.35;117301;1184;23544;-59
2021/10/12 08:11:17;;;;;;;25.40;18.80;;;;;;;15.96;43.03;100305.80;117286;1183;23566;-59
2021/10/12 08:13:46;;;;;;;25.10;18.30;;;;;;;16.08;43.01;100303.41;117309;1182;21927;-59
2021/10/12 08:16:18;;;;;;;22.10;16.60;;;;;;;16.19;43.05;100294.52;117342;1186;23469;-58
2021/10/12 08:18:47;;;;;;;28.10;18.50;;;;;;;16.30;43.03;100284.39;117264;1185;21848;-59
2021/10/12 08:21:15;;;;;;;23.00;15.10;;;;;;;16.43;42.98;100284.96;117357;1185;23557;-59
2021/10/12 08:23:43;;;;;;;28.40;18.20;;;;;;;16.53;43.09;100279.60;117353;1185;23816;-59
2021/10/12 08:26:11;;;;;;;25.50;17.00;;;;;;;16.64;43.03;100267.66;117269;1189;21854;-59
2021/10/12 08:28:40;;;;;;;24.50;15.70;;;;;;;16.74;42.97;100263.75;117332;1182;23621;-59
2021/10/12 08:31:08;;;;;;;22.90;14.40;;;;;;;16.83;42.94;100262.15;117314;1182;23544;-59
2021/10/12 08:33:37;;;;;;;19.80;14.80;;;;;;;16.91;42.96;100259.52;117145;1186;22889;-59
2021/10/12 08:36:05;;;;;;;24.00;15.20;;;;;;;17.00;43.00;100257.27;117361;1185;21853;-59
2021/10/12 08:38:56;;;;;;;23.20;15.20;;;;;;;17.09;43.02;100255.26;117234;1183;22632;-60
2021/10/12 08:41:29;;;;;;;18.00;14.10;;;;;;;17.21;43.05;100258.34;117265;1185;21901;-59
2021/10/12 08:43:58;;;;;;;21.60;16.10;;;;;;;17.31;43.12;100252.41;117313;1185;23459;-59
2021/10/12 08:46:26;;;;;;;24.80;16.90;;;;;;;17.42;43.13;100251.44;117267;1184;21864;-59
2021/10/12 08:48:56;;;;;;;21.70;16.60;;;;;;;17.52;43.15;100244.05;117271;1185;21864;-60
2021/10/12 08:51:27;;;;;;;26.90;17.30;;;;;;;17.67;43.30;100237.55;117333;1184;21932;-52
2021/10/12 08:53:55;;;;;;;25.80;16.70;;;;;;;17.91;43.49;100234.55;117227;1182;23469;-51
2021/10/12 08:56:23;;;;;;;28.70;16.00;;;;;;;18.17;43.49;100230.23;117037;1184;21902;-52
2021/10/12 08:58:52;;;;;;;20.20;15.70;;;;;;;18.38;43.44;100225.88;117346;1183;23816;-52
2021/10/12 09:01:20;;;;;;;21.20;14.70;;;;;;;18.55;43.48;100218.83;117324;1184;23636;-52
2021/10/12 09:06:28;;;;;;;18.10;13.30;;;;;;;18.85;43.26;100218.10;117295;1185;23544;-51
2021/10/12 09:09:17;;;;;;;23.20;13.50;;;;;;;18.96;43.26;100210.48;117271;1185;22909;-52
2021/10/12 09:11:45;;;;;;;16.00;13.30;;;;;;;19.06;43.14;100208.20;117293;1183;23630;-51
2021/10/12 09:14:13;;;;;;;18.50;13.40;;;;;;;19.12;43.01;100208.95;117268;1184;23018;-52
2021/10/12 09:16:43;;;;;;;19.30;13.80;;;;;;;19.16;43.10;100197.77;117323;1186;23682;-51
2021/10/12 09:19:15;;;;;;;21.50;14.70;;;;;;;19.29;43.21;100186.06;117271;1185;21859;-52
2021/10/12 09:21:45;;;;;;;23.00;14.30;;;;;;;19.52;43.35;100186.31;117321;1185;21883;-52
2021/10/12 09:24:15;;;;;;;19.50;14.10;;;;;;;19.71;43.29;100190.96;117277;1181;23604;-52
2021/10/12 09:26:48;;;;;;;21.00;13.00;;;;;;;19.83;43.24;100186.81;117363;1185;21860;-51
2021/10/12 09:29:29;;;;;;;16.70;13.00;;;;;;;19.93;43.13;100187.02;117311;1182;21859;-51
2021/10/12 09:32:05;;;;;;;17.50;12.50;;;;;;;20.03;42.97;100185.92;117299;1185;23566;-52
2021/10/12 09:34:34;;;;;;;18.90;12.20;;;;;;;20.09;42.89;100179.91;117364;1185;23469;-52
2021/10/12 09:37:04;;;;;;;19.20;13.70;;;;;;;20.15;42.90;100174.77;117334;1188;23545;-51
2021/10/12 09:39:42;;;;;;;15.80;12.20;;;;;;;20.22;42.86;100169.38;117314;1183;22903;-52
2021/10/12 09:42:12;;;;;;;15.90;10.60;;;;;;;20.34;42.94;100163.72;117371;1185;23547;-52
2021/10/12 09:44:53;;;;;;;15.90;11.30;;;;;;;20.45;42.89;100167.02;117311;1184;21875;-52
2021/10/12 09:47:22;;;;;;;14.80;11.10;;;;;;;20.54;42.86;100170.98;117322;1182;23557;-51
2021/10/12 09:50:08;;;;;;;15.10;10.90;;;;;;;20.64;42.88;100169.52;117331;1185;21859;-52
2021/10/12 09:52:42;;;;;;;15.90;10.70;;;;;;;20.75;42.79;100167.82;117367;1185;21861;-52
2021/10/12 09:55:15;;;;;;;16.50;11.30;;;;;;;20.84;42.72;100160.36;117341;1185;21838;-54
2021/10/12 09:57:44;;;;;;;15.80;11.50;;;;;;;20.90;42.66;100149.84;117347;1184;21861;-52
2021/10/12 10:00:14;;;;;;;17.20;10.40;;;;;;;20.95;42.64;100149.57;117349;1180;22900;-52
2021/10/12 10:02:42;;;;;;;17.20;10.90;;;;;;;21.02;42.60;100151.48;117378;1186;21865;-53
2021/10/12 10:05:10;;;;;;;18.60;11.80;;;;;;;21.08;42.53;100151.09;117175;1186;21861;-52
2021/10/12 10:07:43;;;;;;;13.90;10.40;;;;;;;21.20;42.62;100148.23;117359;1186;23561;-53
2021/10/12 10:10:16;;;;;;;17.20;10.50;;;;;;;21.35;42.65;100138.59;117271;1181;23600;-52
2021/10/12 10:12:45;;;;;;;15.70;11.20;;;;;;;21.52;42.73;100133.14;117310;1182;23643;-51
2021/10/12 10:15:14;;;;;;;13.20;10.60;;;;;;;21.65;42.72;100125.55;117307;1183;22936;-52
2021/10/12 10:17:47;;;;;;;13.40;9.50;;;;;;;21.81;42.72;100119.55;117040;1183;23548;-52
2021/10/12 10:20:15;;;;;;;12.80;9.80;;;;;;;22.00;42.60;100116.92;117129;1184;23560;-52
2021/10/12 10:22:56;;;;;;;15.70;9.30;;;;;;;22.21;42.71;100116.46;117101;1186;21891;-52
2021/10/12 10:25:25;;;;;;;12.60;9.90;;;;;;;22.45;42.69;100110.66;117312;1184;21858;-51
2021/10/12 10:27:55;;;;;;;14.60;10.30;;;;;;;22.69;42.58;100108.52;117256;1182;23550;-52
2021/10/12 10:30:26;;;;;;;15.10;9.20;;;;;;;22.86;42.41;100113.97;117352;1185;21867;-51
2021/10/12 10:33:04;;;;;;;14.40;10.20;;;;;;;22.98;42.46;100107.79;117307;1185;23568;-52
2021/10/12 10:35:44;;;;;;;12.10;9.00;;;;;;;23.09;42.45;100097.77;117357;1185;23637;-52
2021/10/12 10:38:21;;;;;;;16.70;9.70;;;;;;;23.26;42.36;100088.05;117267;1185;22192;-52
2021/10/12 10:41:04;;;;;;;12.80;9.40;;;;;;;23.43;42.27;100086.63;117223;1184;22916;-51
2021/10/12 10:43:48;;;;;;;12.40;9.10;;;;;;;23.56;41.94;100082.51;117428;1183;23566;-51
2021/10/12 10:46:31;;;;;;;14.50;9.50;;;;;;;23.60;41.95;100077.73;117359;1185;21855;-54
2021/10/12 10:49:19;;;;;;;12.40;8.90;;;;;;;23.61;41.86;100079.13;117328;1184;23547;-54
2021/10/12 10:52:07;;;;;;;12.50;8.70;;;;;;;23.56;41.59;100080.74;117369;1184;23560;-53
2021/10/12 10:54:43;;;;;;;13.50;9.60;;;;;;;23.51;41.58;100075.55;117308;1183;23550;-53
2021/10/12 10:57:21;;;;;;;16.80;10.30;;;;;;;23.53;41.70;100068.99;117348;1184;23547;-53
2021/10/12 11:00:12;;;;;;;14.30;9.90;;;;;;;23.60;41.74;100064.52;117312;1185;21869;-53
2021/10/12 11:02:43;;;;;;;14.80;10.50;;;;;;;23.68;41.72;100065.52;117312;1186;24002;-54
2021/10/12 11:05:33;;;;;;;15.30;10.30;;;;;;;23.74;41.53;100060.07;117335;1183;21867;-54
2021/10/12 11:08:21;;;;;;;14.30;10.30;;;;;;;23.77;41.52;100056.16;117333;1182;22814;-53
2021/10/12 11:10:55;;;;;;;13.30;9.30;;;;;;;23.85;41.44;100052.48;117088;1184;23548;-53
2021/10/12 11:13:35;;;;;;;16.70;9.70;;;;;;;23.92;41.45;100047.86;117332;1185;21946;-53
2021/10/12 11:16:09;;;;;;;14.10;8.90;;;;;;;23.96;41.38;100047.98;117316;1182;23566;-54
2021/10/12 11:18:39;;;;;;;12.00;8.90;;;;;;;23.95;41.38;100045.52;117309;1181;22615;-54
2021/10/12 11:21:12;;;;;;;12.80;8.90;;;;;;;23.95;41.31;100045.16;117354;1183;23564;-54
2021/10/12 11:23:41;;;;;;;13.90;8.90;;;;;;;23.92;41.26;100035.86;117322;1185;22094;-53